Time;durP1;ratioP1;P1;durP2;ratioP2;P2;SDS_P1;SDS_P2;PMS_P1;PMS_P2;Temp;Humidity;BMP_temperature;BMP_pressure;BME280_temperature;BME280_humidity;BME280_pressure;Samples;Min_cycle;Max_cycle;Signal;HPM_P1;HPM_P2
2022/07/16 00:01:56;;;;;;;0.90;0.90;;;18.40;99.90;;;;;;5112533;27;20677;-61
2022/07/16 00:04:23;;;;;;;0.90;0.90;;;18.40;99.90;;;;;;5108621;27;20202;-62
2022/07/16 00:06:50;;;;;;;0.80;0.80;;;18.40;99.90;;;;;;5112200;27;20308;-63
2022/07/16 00:09:17;;;;;;;1.00;1.00;;;18.40;99.90;;;;;;5109761;27;20253;-63
2022/07/16 00:11:45;;;;;;;1.00;1.00;;;18.30;99.90;;;;;;5111714;27;20221;-63
2022/07/16 00:14:12;;;;;;;0.70;0.70;;;18.30;99.90;;;;;;5120639;27;20669;-63
2022/07/16 00:16:39;;;;;;;1.00;1.00;;;18.30;99.90;;;;;;5116069;27;20269;-64
2022/07/16 00:19:18;;;;;;;1.20;1.10;;;18.30;99.90;;;;;;5120760;27;20311;-63
2022/07/16 00:21:46;;;;;;;1.00;1.00;;;18.30;99.90;;;;;;5112400;27;20281;-63
2022/07/16 00:24:13;;;;;;;0.90;0.90;;;18.30;99.90;;;;;;5119564;27;20229;-62
2022/07/16 00:26:41;;;;;;;0.90;0.90;;;18.30;99.90;;;;;;5113171;27;20237;-62
2022/07/16 00:29:09;;;;;;;0.80;0.80;;;18.30;99.90;;;;;;5116440;27;20241;-62
2022/07/16 00:31:37;;;;;;;1.00;0.90;;;18.30;99.90;;;;;;5106710;27;20199;-62
2022/07/16 00:34:06;;;;;;;0.98;0.98;;;18.30;99.90;;;;;;5122838;27;20321;-63
2022/07/16 00:36:33;;;;;;;0.90;0.90;;;18.20;99.90;;;;;;5118430;27;20209;-62
2022/07/16 00:39:00;;;;;;;0.77;0.77;;;18.20;99.90;;;;;;5112484;27;20197;-62
2022/07/16 00:41:27;;;;;;;0.80;0.80;;;18.20;99.90;;;;;;5109159;27;20691;-63
2022/07/16 00:43:58;;;;;;;1.13;1.02;;;18.10;99.90;;;;;;5116949;27;20217;-62
2022/07/16 00:46:28;;;;;;;1.00;1.00;;;18.10;99.90;;;;;;5118410;27;20210;-62
2022/07/16 00:48:56;;;;;;;2.30;0.90;;;18.10;99.90;;;;;;5105560;28;20913;-63
2022/07/16 00:51:24;;;;;;;0.95;0.88;;;18.00;99.90;;;;;;5109989;27;20201;-62
2022/07/16 00:53:51;;;;;;;1.00;1.00;;;18.00;99.90;;;;;;5105452;27;20309;-62
2022/07/16 00:56:18;;;;;;;0.80;0.80;;;18.00;99.90;;;;;;5116523;27;20197;-62
2022/07/16 00:58:46;;;;;;;1.00;1.00;;;18.00;99.90;;;;;;5111704;27;20285;-62
2022/07/16 01:01:15;;;;;;;0.80;0.80;;;18.00;99.90;;;;;;5115812;27;20243;-62
2022/07/16 01:03:44;;;;;;;0.80;0.80;;;17.90;99.90;;;;;;5111258;27;20264;-63
2022/07/16 01:06:11;;;;;;;0.90;0.90;;;17.80;99.90;;;;;;5119109;27;20284;-62
2022/07/16 01:08:41;;;;;;;1.13;1.13;;;17.80;99.90;;;;;;5110794;27;20214;-62
2022/07/16 01:11:10;;;;;;;1.05;1.05;;;17.70;99.90;;;;;;5110979;27;20194;-62
2022/07/16 01:13:39;;;;;;;1.00;1.00;;;17.70;99.90;;;;;;5104165;28;20230;-62
2022/07/16 01:16:08;;;;;;;1.00;0.93;;;17.70;99.90;;;;;;5106091;27;20284;-63
2022/07/16 01:18:36;;;;;;;0.80;0.80;;;17.60;99.90;;;;;;5103974;27;20201;-63
2022/07/16 01:21:05;;;;;;;1.58;1.48;;;17.70;99.90;;;;;;5109759;27;20213;-62
2022/07/16 01:23:33;;;;;;;0.80;0.80;;;17.60;99.90;;;;;;5110555;27;20222;-62
2022/07/16 01:26:00;;;;;;;0.90;0.90;;;17.50;99.90;;;;;;5123493;27;20207;-62
2022/07/16 01:28:27;;;;;;;0.80;0.80;;;17.50;99.90;;;;;;5112607;28;20712;-61
2022/07/16 01:30:54;;;;;;;0.90;0.90;;;17.50;99.90;;;;;;5115845;28;20212;-61
2022/07/16 01:33:24;;;;;;;1.10;1.00;;;17.40;99.90;;;;;;5106209;28;20216;-63
2022/07/16 01:35:53;;;;;;;1.02;1.02;;;17.40;99.90;;;;;;5103042;28;20294;-62
2022/07/16 01:38:20;;;;;;;0.70;0.70;;;17.30;99.90;;;;;;5102646;28;20229;-62
2022/07/16 01:40:49;;;;;;;0.90;0.90;;;17.30;99.90;;;;;;5102507;28;20664;-63
2022/07/16 01:43:17;;;;;;;1.00;1.00;;;17.20;99.90;;;;;;5106909;28;20359;-62
2022/07/16 01:45:44;;;;;;;0.90;0.90;;;17.20;99.90;;;;;;5113085;28;20304;-62
2022/07/16 01:48:12;;;;;;;0.90;0.90;;;17.10;99.90;;;;;;5105676;28;20220;-63
2022/07/16 01:50:40;;;;;;;0.90;0.90;;;17.10;99.90;;;;;;5103272;28;20256;-61
2022/07/16 01:53:07;;;;;;;1.02;1.02;;;17.00;99.90;;;;;;5110732;28;20224;-61
2022/07/16 01:55:36;;;;;;;0.90;0.90;;;17.00;99.90;;;;;;5113904;28;20207;-62
2022/07/16 01:58:05;;;;;;;1.00;1.00;;;17.00;99.90;;;;;;5120175;27;20359;-61
2022/07/16 02:00:33;;;;;;;1.08;1.08;;;17.00;99.90;;;;;;5110582;27;20293;-62
2022/07/16 02:02:59;;;;;;;1.00;1.00;;;16.90;99.90;;;;;;5111098;27;20229;-62
2022/07/16 02:05:27;;;;;;;0.80;0.80;;;16.90;99.90;;;;;;5116697;27;20229;-63
2022/07/16 02:07:54;;;;;;;0.90;0.90;;;16.90;99.90;;;;;;5110977;27;20226;-62
2022/07/16 02:10:20;;;;;;;1.10;1.10;;;16.80;99.90;;;;;;5111667;27;20225;-62
2022/07/16 02:12:48;;;;;;;0.95;0.95;;;16.70;99.90;;;;;;5106736;27;20233;-62
2022/07/16 02:15:16;;;;;;;0.85;0.85;;;16.60;99.90;;;;;;5121456;27;20592;-62
2022/07/16 02:17:43;;;;;;;0.90;0.90;;;16.60;99.90;;;;;;5123017;27;20281;-62
2022/07/16 02:20:11;;;;;;;0.90;0.90;;;16.50;99.90;;;;;;5109126;27;20284;-62
2022/07/16 02:22:38;;;;;;;1.00;1.00;;;16.70;99.90;;;;;;5112309;27;20222;-62
2022/07/16 02:25:08;;;;;;;0.90;0.90;;;16.90;99.90;;;;;;5112897;27;20201;-62
2022/07/16 02:27:35;;;;;;;0.90;0.90;;;17.00;99.90;;;;;;5116292;27;20619;-62
2022/07/16 02:30:02;;;;;;;1.08;1.00;;;17.00;99.90;;;;;;5116110;27;20217;-63
2022/07/16 02:32:30;;;;;;;0.85;0.85;;;17.00;99.90;;;;;;5109292;27;20236;-63
2022/07/16 02:34:57;;;;;;;0.82;0.82;;;16.90;99.90;;;;;;5102643;27;20289;-62
2022/07/16 02:37:24;;;;;;;0.90;0.90;;;16.80;99.90;;;;;;5114901;27;20202;-61
2022/07/16 02:39:51;;;;;;;0.80;0.80;;;16.80;99.90;;;;;;5116025;27;20564;-62
2022/07/16 02:42:18;;;;;;;1.20;1.20;;;16.80;99.90;;;;;;5117668;27;20222;-61
2022/07/16 02:44:46;;;;;;;0.82;0.82;;;16.80;99.90;;;;;;5108866;27;20751;-61
2022/07/16 02:47:12;;;;;;;0.98;0.98;;;16.90;99.90;;;;;;5105834;28;20388;-61
2022/07/16 02:49:41;;;;;;;1.13;1.13;;;16.90;99.90;;;;;;5105470;27;20218;-62
2022/07/16 02:52:07;;;;;;;1.08;1.08;;;16.90;99.90;;;;;;5116658;27;20221;-62
2022/07/16 02:54:34;;;;;;;1.15;1.13;;;16.80;99.90;;;;;;5112456;27;20197;-62
2022/07/16 02:57:01;;;;;;;0.90;0.90;;;16.80;99.90;;;;;;5109663;27;20664;-61
2022/07/16 02:59:28;;;;;;;1.10;1.10;;;16.80;99.90;;;;;;5109828;27;20293;-62
2022/07/16 03:01:55;;;;;;;1.00;1.00;;;16.70;99.90;;;;;;5107734;28;20231;-62
2022/07/16 03:04:22;;;;;;;1.10;1.10;;;16.70;99.90;;;;;;5111563;27;20718;-62
2022/07/16 03:06:50;;;;;;;1.00;1.00;;;16.70;99.90;;;;;;5109894;28;20253;-62
2022/07/16 03:09:17;;;;;;;1.10;1.10;;;16.80;99.90;;;;;;5107155;27;20283;-63
2022/07/16 03:11:44;;;;;;;0.90;0.90;;;16.60;99.90;;;;;;5107849;28;20209;-62
2022/07/16 03:14:11;;;;;;;1.00;1.00;;;16.60;99.90;;;;;;5105614;28;20302;-62
2022/07/16 03:16:38;;;;;;;0.95;0.95;;;16.60;99.90;;;;;;5105378;27;20282;-63
2022/07/16 03:19:04;;;;;;;1.27;0.88;;;16.60;99.90;;;;;;5108541;27;20198;-62
2022/07/16 03:21:31;;;;;;;0.98;0.95;;;16.60;99.90;;;;;;5110534;27;20321;-62
2022/07/16 03:24:00;;;;;;;0.93;0.93;;;16.60;99.90;;;;;;5119027;27;20778;-62
2022/07/16 03:26:27;;;;;;;0.90;0.90;;;16.60;99.90;;;;;;5114776;27;20297;-62
2022/07/16 03:28:53;;;;;;;0.82;0.82;;;16.50;99.90;;;;;;5114713;27;20324;-61
2022/07/16 03:31:20;;;;;;;1.00;1.00;;;16.50;99.90;;;;;;5108112;27;20206;-62
2022/07/16 03:33:47;;;;;;;1.00;1.00;;;16.40;99.90;;;;;;5117419;27;20225;-61
2022/07/16 03:36:14;;;;;;;0.90;0.90;;;16.40;99.90;;;;;;5113927;27;20324;-61
2022/07/16 03:39:01;;;;;;;1.02;1.02;;;16.40;99.90;;;;;;5120737;27;20248;-62
2022/07/16 03:41:31;;;;;;;1.10;1.10;;;16.40;99.90;;;;;;5113409;27;20194;-62
2022/07/16 03:43:58;;;;;;;1.00;1.00;;;16.30;99.90;;;;;;5111364;27;20217;-62
2022/07/16 03:46:25;;;;;;;1.00;1.00;;;16.20;99.90;;;;;;5110719;27;20605;-61
2022/07/16 03:48:52;;;;;;;1.55;1.00;;;16.00;99.90;;;;;;5111819;27;20762;-63
2022/07/16 03:51:19;;;;;;;0.82;0.82;;;16.00;99.90;;;;;;5106592;27;20198;-62
2022/07/16 03:53:46;;;;;;;0.93;0.93;;;16.00;99.90;;;;;;5106874;27;20644;-62
2022/07/16 03:56:12;;;;;;;1.00;1.00;;;16.00;99.90;;;;;;5104055;28;20257;-62
2022/07/16 03:58:41;;;;;;;1.05;1.05;;;16.10;99.90;;;;;;5104983;27;20191;-63
2022/07/16 04:01:08;;;;;;;1.13;1.13;;;16.20;99.90;;;;;;5112832;27;20201;-63
2022/07/16 04:03:36;;;;;;;1.00;1.00;;;16.10;99.90;;;;;;5111763;27;20314;-62
2022/07/16 04:06:03;;;;;;;1.02;1.02;;;16.10;99.90;;;;;;5105479;28;20198;-63
2022/07/16 04:08:30;;;;;;;1.10;1.00;;;16.20;99.90;;;;;;5113310;27;20269;-61
2022/07/16 04:10:58;;;;;;;0.90;0.90;;;16.20;99.90;;;;;;5111112;27;20201;-61
2022/07/16 04:13:25;;;;;;;0.90;0.90;;;16.20;99.90;;;;;;5114612;22;20234;-67
2022/07/16 04:15:53;;;;;;;1.00;1.00;;;16.30;99.90;;;;;;5067863;28;20204;-66
2022/07/16 04:18:20;;;;;;;1.10;1.00;;;16.20;99.90;;;;;;5076003;28;20215;-64
2022/07/16 04:20:49;;;;;;;1.00;1.00;;;16.20;99.90;;;;;;5076220;28;20199;-66
2022/07/16 04:23:16;;;;;;;0.80;0.80;;;16.10;99.90;;;;;;5072570;28;20245;-66
2022/07/16 04:25:43;;;;;;;1.00;1.00;;;16.20;99.90;;;;;;5062141;28;20242;-67
2022/07/16 04:28:10;;;;;;;0.90;0.90;;;16.20;99.90;;;;;;5052330;28;20200;-66
2022/07/16 04:30:37;;;;;;;0.90;0.90;;;16.20;99.90;;;;;;5056770;28;20318;-66
2022/07/16 04:33:05;;;;;;;0.90;0.90;;;16.30;99.90;;;;;;5059065;28;20759;-67
2022/07/16 04:35:32;;;;;;;1.00;1.00;;;16.30;99.90;;;;;;5047307;28;20236;-67
2022/07/16 04:37:59;;;;;;;0.90;0.90;;;16.30;99.90;;;;;;5055253;28;20870;-66
2022/07/16 04:40:26;;;;;;;0.90;0.90;;;16.40;99.90;;;;;;5060794;28;20685;-66
2022/07/16 04:42:53;;;;;;;1.00;1.00;;;16.40;99.90;;;;;;5060072;28;20774;-66
2022/07/16 04:45:20;;;;;;;1.15;1.02;;;16.30;99.90;;;;;;5065363;28;20286;-66
2022/07/16 04:47:46;;;;;;;1.27;0.98;;;16.20;99.90;;;;;;5053596;28;20330;-68
2022/07/16 04:50:15;;;;;;;1.00;1.00;;;16.20;99.90;;;;;;5054090;28;20217;-67
2022/07/16 04:52:42;;;;;;;1.15;1.10;;;16.40;99.90;;;;;;5049492;28;20216;-67
2022/07/16 04:55:09;;;;;;;1.13;1.10;;;16.50;99.90;;;;;;5056472;28;20203;-65
2022/07/16 04:57:36;;;;;;;1.00;0.90;;;16.50;99.90;;;;;;5052778;28;20571;-65
2022/07/16 05:00:05;;;;;;;0.90;0.90;;;16.40;99.90;;;;;;5063208;28;20650;-67
2022/07/16 05:05:19;;;;;;;0.80;0.80;;;16.50;99.90;;;;;;5051162;28;20210;-65
2022/07/16 05:07:47;;;;;;;1.73;1.10;;;16.60;99.90;;;;;;5061235;28;20657;-65
2022/07/16 05:10:14;;;;;;;0.98;0.98;;;16.70;99.90;;;;;;5062745;28;20221;-66
2022/07/16 05:12:41;;;;;;;1.20;1.10;;;16.80;99.90;;;;;;5051376;28;20224;-65
2022/07/16 05:15:08;;;;;;;1.02;0.98;;;16.90;99.90;;;;;;5054389;28;20410;-66
2022/07/16 05:17:35;;;;;;;2.38;1.10;;;16.90;99.90;;;;;;5055623;28;20291;-67
2022/07/16 05:20:03;;;;;;;0.98;0.90;;;17.00;99.90;;;;;;5050592;28;20670;-67
2022/07/16 05:22:31;;;;;;;0.90;0.90;;;17.20;99.90;;;;;;5045539;28;20210;-66
2022/07/16 05:24:58;;;;;;;0.95;0.95;;;17.30;99.90;;;;;;5049887;28;20654;-66
2022/07/16 05:27:25;;;;;;;1.00;1.00;;;17.50;99.90;;;;;;5061289;28;20222;-66
2022/07/16 05:29:52;;;;;;;1.10;1.10;;;17.80;99.90;;;;;;5049187;28;20574;-67
2022/07/16 05:32:19;;;;;;;1.23;1.20;;;18.00;99.90;;;;;;5055457;28;20295;-65
2022/07/16 05:34:46;;;;;;;1.63;1.00;;;18.20;99.90;;;;;;5057417;28;20297;-66
2022/07/16 05:37:13;;;;;;;0.93;0.85;;;18.40;99.90;;;;;;5053228;28;20683;-66
2022/07/16 05:39:41;;;;;;;0.90;0.90;;;18.60;99.90;;;;;;5059761;28;20278;-68
2022/07/16 05:42:08;;;;;;;1.02;1.02;;;18.70;99.90;;;;;;5055850;28;20200;-67
2022/07/16 05:44:34;;;;;;;0.90;0.90;;;18.90;99.90;;;;;;5056837;28;20315;-66
2022/07/16 05:47:01;;;;;;;1.02;1.02;;;19.00;99.90;;;;;;5060464;28;20286;-64
2022/07/16 05:49:28;;;;;;;1.00;1.00;;;19.20;99.90;;;;;;5055703;28;20223;-66
2022/07/16 05:51:55;;;;;;;1.00;0.98;;;19.40;99.90;;;;;;5057750;28;20287;-70
2022/07/16 05:54:22;;;;;;;1.10;1.10;;;19.50;99.90;;;;;;5062848;28;20914;-67
2022/07/16 05:56:50;;;;;;;1.30;1.20;;;19.70;99.90;;;;;;5068511;28;20285;-66
2022/07/16 05:59:17;;;;;;;1.08;1.08;;;19.80;99.90;;;;;;5055952;28;20299;-68
2022/07/16 06:01:44;;;;;;;1.20;1.10;;;20.00;99.90;;;;;;5065051;28;20302;-66
2022/07/16 06:04:11;;;;;;;1.35;1.10;;;20.10;99.90;;;;;;5056483;28;20705;-65
2022/07/16 06:06:37;;;;;;;1.00;1.00;;;20.10;99.90;;;;;;5059461;28;20614;-68
2022/07/16 06:09:04;;;;;;;0.90;0.90;;;20.00;99.90;;;;;;5052141;28;20287;-65
2022/07/16 06:11:31;;;;;;;1.38;1.27;;;20.20;99.90;;;;;;5056608;28;20690;-67
2022/07/16 06:13:59;;;;;;;1.00;1.00;;;20.50;99.90;;;;;;5073425;28;20254;-68
2022/07/16 06:16:27;;;;;;;0.88;0.88;;;20.70;99.90;;;;;;5064314;28;20214;-66
2022/07/16 06:18:54;;;;;;;1.10;1.05;;;20.80;99.90;;;;;;5063079;28;20223;-66
2022/07/16 06:21:21;;;;;;;1.10;1.10;;;21.00;99.90;;;;;;5062160;28;20204;-65
2022/07/16 06:23:48;;;;;;;1.10;1.10;;;21.10;99.90;;;;;;5077153;28;20216;-66
2022/07/16 06:26:14;;;;;;;1.00;1.00;;;21.20;99.90;;;;;;5075856;28;20234;-65
2022/07/16 06:28:41;;;;;;;1.00;1.00;;;21.10;99.90;;;;;;5065619;28;20200;-66
2022/07/16 06:31:10;;;;;;;1.00;1.00;;;20.90;99.90;;;;;;5064038;28;20339;-67
2022/07/16 06:33:37;;;;;;;1.00;1.00;;;20.90;99.90;;;;;;5062905;28;20299;-67
2022/07/16 06:36:05;;;;;;;0.90;0.90;;;21.10;99.90;;;;;;5057300;28;20249;-65
2022/07/16 06:38:32;;;;;;;0.95;0.95;;;21.20;99.90;;;;;;5060145;28;20211;-67
2022/07/16 06:40:59;;;;;;;1.00;1.00;;;21.20;99.90;;;;;;5061045;28;20283;-66
2022/07/16 06:43:26;;;;;;;1.00;1.00;;;21.20;99.90;;;;;;5060242;28;20764;-66
2022/07/16 06:45:53;;;;;;;1.20;1.00;;;21.10;99.90;;;;;;5054901;28;20192;-65
2022/07/16 06:48:22;;;;;;;1.20;1.20;;;21.20;99.90;;;;;;5052981;28;20243;-65
2022/07/16 06:50:50;;;;;;;1.08;1.00;;;21.40;99.90;;;;;;5056483;28;20655;-71
2022/07/16 06:53:16;;;;;;;1.40;1.30;;;21.40;99.90;;;;;;5047898;28;20219;-71
2022/07/16 06:55:43;;;;;;;1.10;1.10;;;21.40;99.90;;;;;;5049704;28;20203;-71
2022/07/16 06:58:10;;;;;;;2.00;1.30;;;21.10;99.90;;;;;;5059409;28;20207;-71
2022/07/16 07:00:37;;;;;;;1.30;1.20;;;21.10;99.90;;;;;;5057264;28;20206;-71
2022/07/16 07:03:04;;;;;;;1.02;1.02;;;21.00;99.90;;;;;;5052537;28;20220;-70
2022/07/16 07:05:32;;;;;;;1.40;1.30;;;21.00;99.90;;;;;;5056601;28;20211;-69
2022/07/16 07:07:59;;;;;;;1.20;1.10;;;21.10;99.90;;;;;;5050448;28;20261;-70
2022/07/16 07:10:26;;;;;;;1.00;1.00;;;21.00;99.90;;;;;;5045726;28;20260;-71
2022/07/16 07:12:53;;;;;;;1.10;1.10;;;21.20;99.90;;;;;;5051444;28;20311;-70
2022/07/16 07:15:20;;;;;;;1.23;1.20;;;21.30;99.90;;;;;;5054432;28;20200;-69
2022/07/16 07:17:47;;;;;;;2.15;1.15;;;21.40;99.90;;;;;;5052907;28;20294;-69
2022/07/16 07:20:14;;;;;;;1.30;1.13;;;21.40;99.90;;;;;;5055689;28;20191;-71
2022/07/16 07:22:43;;;;;;;1.27;1.25;;;21.40;99.90;;;;;;5054448;28;20267;-69
2022/07/16 07:25:10;;;;;;;1.25;1.00;;;21.60;99.90;;;;;;5059536;28;20593;-70
2022/07/16 07:27:43;;;;;;;1.73;1.30;;;21.70;99.90;;;;;;5070871;28;20204;-70
2022/07/16 07:30:12;;;;;;;1.10;1.10;;;21.60;99.90;;;;;;5070392;28;20299;-70
2022/07/16 07:32:39;;;;;;;1.95;1.20;;;21.70;99.90;;;;;;5067347;28;20208;-70
2022/07/16 07:35:07;;;;;;;1.40;1.30;;;21.90;99.90;;;;;;5056920;28;20258;-69
2022/07/16 07:37:34;;;;;;;1.00;1.00;;;21.90;99.90;;;;;;5054497;28;20212;-70
2022/07/16 07:40:03;;;;;;;1.20;1.20;;;21.90;99.90;;;;;;5057408;28;20195;-71
2022/07/16 07:42:31;;;;;;;1.00;1.00;;;21.80;99.90;;;;;;5065889;28;20285;-71
2022/07/16 07:44:58;;;;;;;1.50;1.40;;;21.80;99.90;;;;;;5054769;28;20789;-70
2022/07/16 07:47:24;;;;;;;1.00;1.00;;;21.80;99.90;;;;;;5054609;28;20200;-70
2022/07/16 07:49:51;;;;;;;1.10;1.10;;;22.00;99.90;;;;;;5056009;28;20308;-70
2022/07/16 07:52:18;;;;;;;1.45;1.00;;;22.30;99.90;;;;;;5054798;28;20296;-69
2022/07/16 07:54:45;;;;;;;1.10;1.10;;;22.40;99.90;;;;;;5051734;28;20593;-71
2022/07/16 07:57:13;;;;;;;1.40;1.30;;;22.60;99.90;;;;;;5054283;28;20291;-70
2022/07/16 07:59:41;;;;;;;1.33;1.23;;;22.60;99.90;;;;;;5063280;28;20224;-70
2022/07/16 08:02:08;;;;;;;1.90;1.10;;;22.70;99.90;;;;;;5066564;28;20235;-71
2022/07/16 08:04:35;;;;;;;1.05;1.05;;;22.80;99.90;;;;;;5059087;28;20263;-69
2022/07/16 08:07:02;;;;;;;1.20;1.10;;;22.80;99.90;;;;;;5054231;28;20284;-70
2022/07/16 08:09:29;;;;;;;1.23;1.13;;;22.80;99.90;;;;;;5056442;28;20857;-70
2022/07/16 08:11:56;;;;;;;1.83;1.40;;;23.00;99.90;;;;;;5062785;28;20239;-70
2022/07/16 08:14:24;;;;;;;1.20;1.13;;;23.00;99.90;;;;;;5061131;28;20276;-70
2022/07/16 08:16:51;;;;;;;2.83;1.20;;;23.00;99.90;;;;;;5052904;28;20286;-69
2022/07/16 08:19:18;;;;;;;1.10;1.00;;;23.10;99.90;;;;;;5054475;28;20288;-70
2022/07/16 08:21:45;;;;;;;5.07;1.25;;;23.20;99.90;;;;;;5056992;28;20669;-69
2022/07/16 08:26:57;;;;;;;1.02;1.02;;;23.40;99.90;;;;;;5051128;28;20211;-70
2022/07/16 08:29:25;;;;;;;1.23;1.15;;;23.60;99.90;;;;;;5055775;28;20199;-71
2022/07/16 08:31:52;;;;;;;0.90;0.90;;;23.70;99.90;;;;;;5055671;28;20266;-69
2022/07/16 08:34:22;;;;;;;1.02;1.00;;;23.60;99.90;;;;;;5052423;28;20278;-69
2022/07/16 08:36:50;;;;;;;1.10;1.05;;;23.60;99.90;;;;;;5056682;28;20206;-69
2022/07/16 08:39:17;;;;;;;1.50;1.05;;;23.60;99.90;;;;;;5052816;28;20253;-69
2022/07/16 08:41:45;;;;;;;0.82;0.82;;;23.50;99.90;;;;;;5049996;28;20199;-69
2022/07/16 08:44:13;;;;;;;1.20;1.10;;;23.60;99.90;;;;;;5048693;28;20285;-69
2022/07/16 08:46:42;;;;;;;0.93;0.93;;;23.50;99.90;;;;;;5053521;28;20246;-69
2022/07/16 08:49:09;;;;;;;1.73;1.20;;;23.30;99.90;;;;;;5052033;28;20232;-68
2022/07/16 08:51:38;;;;;;;1.45;1.10;;;23.40;99.90;;;;;;5051573;28;20262;-69
2022/07/16 08:54:11;;;;;;;1.02;1.02;;;23.70;99.90;;;;;;5058540;28;20242;-69
2022/07/16 08:56:38;;;;;;;1.67;1.08;;;23.80;99.90;;;;;;5053205;28;20211;-70
2022/07/16 08:59:06;;;;;;;1.10;0.98;;;24.00;99.90;;;;;;5069580;28;20235;-69
2022/07/16 09:01:33;;;;;;;1.38;1.10;;;24.20;99.90;;;;;;5070906;28;20206;-70
2022/07/16 09:04:02;;;;;;;1.13;1.13;;;24.30;99.90;;;;;;5067945;28;20226;-69
2022/07/16 09:06:30;;;;;;;1.95;1.00;;;24.00;99.90;;;;;;5067294;28;20207;-69
2022/07/16 09:08:57;;;;;;;1.30;1.20;;;24.10;99.90;;;;;;5054923;28;20210;-68
2022/07/16 09:11:27;;;;;;;1.00;1.00;;;24.10;99.90;;;;;;5050958;28;20657;-69
2022/07/16 09:14:02;;;;;;;0.77;0.77;;;24.20;99.90;;;;;;5049794;28;20776;-70
2022/07/16 09:16:30;;;;;;;1.27;1.17;;;24.50;99.90;;;;;;5048262;28;20294;-68
2022/07/16 09:19:10;;;;;;;0.90;0.90;;;24.60;99.90;;;;;;5053137;28;20222;-69
2022/07/16 09:21:57;;;;;;;0.77;0.77;;;24.60;99.90;;;;;;5058844;28;20228;-69
2022/07/16 09:24:36;;;;;;;0.90;0.90;;;24.70;99.90;;;;;;5053184;28;20230;-69
2022/07/16 09:27:06;;;;;;;0.98;0.98;;;25.00;99.90;;;;;;5056538;28;20215;-70
2022/07/16 09:29:44;;;;;;;1.13;1.02;;;25.10;99.90;;;;;;5053670;28;20204;-69
2022/07/16 09:32:12;;;;;;;0.95;0.95;;;25.20;99.90;;;;;;5056563;28;20257;-69
2022/07/16 09:34:40;;;;;;;0.70;0.70;;;25.20;99.90;;;;;;5045264;28;20311;-69
2022/07/16 09:37:07;;;;;;;0.75;0.75;;;25.10;99.90;;;;;;5037844;28;20295;-68
2022/07/16 09:39:36;;;;;;;0.70;0.70;;;25.20;99.90;;;;;;5038511;28;20621;-69
2022/07/16 09:42:04;;;;;;;0.80;0.80;;;25.30;99.90;;;;;;5039443;28;20201;-69
2022/07/16 09:44:33;;;;;;;0.80;0.80;;;25.30;99.90;;;;;;5036557;28;20713;-68
2022/07/16 09:47:06;;;;;;;0.80;0.80;;;25.30;99.90;;;;;;5045982;28;20270;-68
2022/07/16 09:49:36;;;;;;;0.70;0.70;;;25.30;99.40;;;;;;5042398;28;20296;-68
2022/07/16 09:52:05;;;;;;;0.90;0.73;;;25.50;99.60;;;;;;5040673;28;20225;-69
2022/07/16 09:54:33;;;;;;;0.70;0.70;;;25.60;99.10;;;;;;5044328;28;20267;-70
2022/07/16 09:57:08;;;;;;;1.58;0.80;;;25.80;99.10;;;;;;5039615;28;20273;-69
2022/07/16 09:59:36;;;;;;;1.15;0.88;;;26.10;99.10;;;;;;5041016;28;20294;-69
2022/07/16 10:02:03;;;;;;;1.85;1.00;;;26.00;98.50;;;;;;5045884;28;20545;-68
2022/07/16 10:04:30;;;;;;;0.80;0.80;;;26.00;98.00;;;;;;5040608;28;20228;-68
2022/07/16 10:06:58;;;;;;;0.75;0.75;;;25.70;97.80;;;;;;5040890;28;20287;-69
2022/07/16 10:09:27;;;;;;;2.55;0.98;;;25.90;98.50;;;;;;5036679;28;20216;-70
2022/07/16 10:11:57;;;;;;;0.80;0.80;;;26.00;97.70;;;;;;5042572;28;20231;-69
2022/07/16 10:14:24;;;;;;;0.80;0.80;;;26.10;97.90;;;;;;5036832;28;20225;-69
2022/07/16 10:16:51;;;;;;;0.82;0.80;;;26.20;97.50;;;;;;5038909;28;20277;-67
2022/07/16 10:19:18;;;;;;;0.93;0.93;;;26.20;97.50;;;;;;5046780;28;20211;-69
2022/07/16 10:22:13;;;;;;;0.70;0.70;;;26.20;97.20;;;;;;5040121;28;20726;-68
2022/07/16 10:24:50;;;;;;;0.98;0.80;;;26.40;97.40;;;;;;5035944;28;20246;-70
2022/07/16 10:27:30;;;;;;;0.80;0.80;;;26.70;96.90;;;;;;5050009;28;20223;-69
2022/07/16 10:30:15;;;;;;;0.88;0.88;;;26.70;96.60;;;;;;5050528;28;20204;-70
2022/07/16 10:33:12;;;;;;;1.00;1.00;;;26.70;96.90;;;;;;5040824;28;20259;-70
2022/07/16 10:35:42;;;;;;;1.00;1.00;;;26.50;96.30;;;;;;5042922;28;20196;-68
2022/07/16 10:38:11;;;;;;;0.88;0.70;;;26.50;96.50;;;;;;5039608;28;20204;-68
2022/07/16 10:40:41;;;;;;;1.00;0.90;;;26.30;96.30;;;;;;5049427;28;20238;-69
2022/07/16 10:43:17;;;;;;;0.75;0.75;;;26.40;96.50;;;;;;5048957;28;20247;-69
2022/07/16 10:45:54;;;;;;;0.77;0.77;;;26.50;96.40;;;;;;5043638;28;20283;-69
2022/07/16 10:48:23;;;;;;;0.98;0.80;;;26.80;96.90;;;;;;5045225;28;20219;-68
2022/07/16 10:51:09;;;;;;;0.90;0.90;;;26.90;96.10;;;;;;5048426;28;20223;-67
2022/07/16 10:54:10;;;;;;;0.80;0.80;;;27.00;95.60;;;;;;5056211;28;20733;-67
2022/07/16 10:56:40;;;;;;;0.80;0.80;;;26.70;95.40;;;;;;5055953;28;20240;-68
2022/07/16 10:59:09;;;;;;;1.33;0.88;;;26.60;95.90;;;;;;5056057;28;20288;-67
2022/07/16 11:01:36;;;;;;;1.33;1.00;;;26.70;95.90;;;;;;5040749;28;20280;-67
2022/07/16 11:04:03;;;;;;;0.88;0.88;;;26.80;95.50;;;;;;5052021;28;20277;-68
2022/07/16 11:06:31;;;;;;;1.30;1.20;;;26.90;95.60;;;;;;5052912;28;20200;-68
2022/07/16 11:08:58;;;;;;;1.52;1.02;;;27.00;95.40;;;;;;5044323;28;20214;-67
2022/07/16 11:11:32;;;;;;;0.73;0.73;;;26.90;95.60;;;;;;5052631;28;20315;-67
2022/07/16 11:14:01;;;;;;;0.90;0.90;;;27.00;95.80;;;;;;5044054;28;20232;-68
2022/07/16 11:16:28;;;;;;;0.82;0.82;;;27.10;95.60;;;;;;5039774;28;20209;-67
2022/07/16 11:18:55;;;;;;;0.60;0.60;;;27.00;95.20;;;;;;5050721;28;20212;-67
2022/07/16 11:21:22;;;;;;;0.82;0.82;;;27.00;95.70;;;;;;5040190;28;20195;-68
2022/07/16 11:23:50;;;;;;;0.90;0.80;;;27.00;95.90;;;;;;5046044;28;20298;-69
2022/07/16 11:26:19;;;;;;;0.82;0.82;;;26.80;94.90;;;;;;5060758;28;20200;-67
2022/07/16 11:28:52;;;;;;;1.20;0.80;;;26.90;95.30;;;;;;5063733;28;20204;-67
2022/07/16 11:31:26;;;;;;;1.65;1.00;;;27.10;95.50;;;;;;5043837;28;20224;-66
2022/07/16 11:33:55;;;;;;;0.88;0.88;;;27.10;95.40;;;;;;5047648;28;20228;-67
2022/07/16 11:36:22;;;;;;;0.80;0.80;;;27.10;95.40;;;;;;5046524;28;20199;-67
2022/07/16 11:38:49;;;;;;;0.70;0.70;;;27.20;95.30;;;;;;5038210;28;20288;-67
2022/07/16 11:41:17;;;;;;;0.80;0.80;;;27.20;95.30;;;;;;5047588;28;20287;-68
2022/07/16 11:43:44;;;;;;;2.08;0.75;;;27.40;95.00;;;;;;5044565;28;20307;-66
2022/07/16 11:46:23;;;;;;;0.93;0.93;;;27.50;94.80;;;;;;5041389;28;20231;-67
2022/07/16 11:48:52;;;;;;;0.90;0.90;;;27.60;94.70;;;;;;5043729;28;20200;-66
2022/07/16 11:51:19;;;;;;;0.82;0.80;;;27.40;94.40;;;;;;5042592;28;20307;-67
2022/07/16 11:53:49;;;;;;;0.80;0.80;;;27.40;94.10;;;;;;5043717;28;20220;-67
2022/07/16 11:56:30;;;;;;;0.90;0.90;;;27.30;94.10;;;;;;5048254;28;20200;-66
2022/07/16 11:58:57;;;;;;;1.10;1.00;;;27.20;94.30;;;;;;5036984;28;20205;-68
2022/07/16 12:01:25;;;;;;;1.33;0.90;;;26.80;94.20;;;;;;5037365;28;20196;-68
2022/07/16 12:03:57;;;;;;;1.65;1.10;;;26.90;94.20;;;;;;5036732;28;20224;-69
2022/07/16 12:06:23;;;;;;;0.90;0.90;;;27.20;94.00;;;;;;5036437;28;20197;-68
2022/07/16 12:08:53;;;;;;;1.10;1.00;;;27.30;94.30;;;;;;5044932;28;20286;-67
2022/07/16 12:11:20;;;;;;;0.80;0.80;;;27.20;93.70;;;;;;5047926;28;20220;-68
2022/07/16 12:13:54;;;;;;;0.70;0.70;;;27.30;94.00;;;;;;5042029;28;20801;-67
2022/07/16 12:16:22;;;;;;;1.05;0.95;;;27.40;93.80;;;;;;5041657;28;20210;-68
2022/07/16 12:19:04;;;;;;;0.77;0.77;;;27.40;93.70;;;;;;5042915;28;20286;-67
2022/07/16 12:21:33;;;;;;;0.80;0.80;;;27.50;93.60;;;;;;5077879;22;20226;-60
2022/07/16 12:24:00;;;;;;;0.77;0.77;;;27.60;93.60;;;;;;5100031;28;20203;-60
2022/07/16 12:26:32;;;;;;;0.80;0.80;;;27.60;92.90;;;;;;5096496;28;20203;-58
2022/07/16 12:28:59;;;;;;;0.75;0.70;;;27.50;92.80;;;;;;5095974;28;20282;-59
2022/07/16 12:31:28;;;;;;;0.88;0.88;;;27.60;93.00;;;;;;5098568;28;20311;-58
2022/07/16 12:33:56;;;;;;;0.80;0.80;;;27.80;92.90;;;;;;5111007;28;20792;-59
2022/07/16 12:36:32;;;;;;;0.98;0.98;;;27.90;93.00;;;;;;5108364;28;20280;-60
2022/07/16 12:39:02;;;;;;;0.70;0.70;;;28.10;93.10;;;;;;5110553;28;20657;-60
2022/07/16 12:41:31;;;;;;;0.88;0.85;;;28.40;92.80;;;;;;5109494;28;20660;-60
2022/07/16 12:44:01;;;;;;;0.80;0.80;;;28.30;92.20;;;;;;5110737;28;20293;-60
2022/07/16 12:46:31;;;;;;;1.95;0.90;;;28.10;92.40;;;;;;5109846;28;20206;-60
2022/07/16 12:49:00;;;;;;;1.15;1.00;;;28.00;92.30;;;;;;5109385;28;20198;-61
2022/07/16 12:51:30;;;;;;;1.38;0.73;;;28.10;92.50;;;;;;5108967;28;20246;-60
2022/07/16 12:53:59;;;;;;;1.15;0.80;;;28.40;92.30;;;;;;5109245;28;20190;-60
2022/07/16 12:59:15;;;;;;;0.70;0.70;;;28.10;91.70;;;;;;5073973;28;20529;-58
2022/07/16 13:01:42;;;;;;;2.90;1.30;;;28.00;91.60;;;;;;5108579;28;20237;-60
2022/07/16 13:04:10;;;;;;;0.90;0.90;;;28.00;91.80;;;;;;5111548;28;20238;-59